sensor_id;sensor_type;location;lat;lon;timestamp;pressure;altitude;pressure_sealevel;temperature;humidity
11011;BME280;5558;42.702;23.178;2023-04-30T13:03:45;93418.63;;;18.85;46.13
11011;BME280;5558;42.702;23.178;2023-04-30T13:06:12;93405.66;;;17.81;47.90
11011;BME280;5558;42.702;23.178;2023-04-30T13:08:39;93397.53;;;17.30;48.07
11011;BME280;5558;42.702;23.178;2023-04-30T13:12:31;93394.09;;;16.82;49.78
11011;BME280;5558;42.702;23.178;2023-04-30T14:33:42;93375.25;;;26.08;43.09
11011;BME280;5558;42.702;23.178;2023-04-30T14:36:09;93369.63;;;25.98;43.52
11011;BME280;5558;42.702;23.178;2023-04-30T14:38:36;93371.91;;;25.92;40.86
11011;BME280;5558;42.702;23.178;2023-04-30T14:41:03;93368.69;;;26.09;41.54
11011;BME280;5558;42.702;23.178;2023-04-30T14:43:30;93368.03;;;26.19;40.87
11011;BME280;5558;42.702;23.178;2023-04-30T14:45:56;93364.25;;;26.27;41.55
11011;BME280;5558;42.702;23.178;2023-04-30T14:48:23;93375.34;;;26.15;40.84
11011;BME280;5558;42.702;23.178;2023-04-30T14:50:51;93380.41;;;26.17;41.48
11011;BME280;5558;42.702;23.178;2023-04-30T14:53:18;93376.13;;;26.16;41.71
11011;BME280;5558;42.702;23.178;2023-04-30T14:55:45;93373.31;;;26.09;42.20
11011;BME280;5558;42.702;23.178;2023-04-30T14:58:12;93376.41;;;26.07;42.27
11011;BME280;5558;42.702;23.178;2023-04-30T15:00:38;93379.50;;;26.06;42.13
11011;BME280;5558;42.702;23.178;2023-04-30T15:03:05;93384.06;;;26.02;42.12
11011;BME280;5558;42.702;23.178;2023-04-30T15:05:32;93382.44;;;25.97;42.05
11011;BME280;5558;42.702;23.178;2023-04-30T15:08:00;93379.31;;;25.95;42.02
11011;BME280;5558;42.702;23.178;2023-04-30T15:10:27;93376.59;;;25.95;42.16
11011;BME280;5558;42.702;23.178;2023-04-30T15:12:53;93387.44;;;25.95;42.12
11011;BME280;5558;42.702;23.178;2023-04-30T15:15:20;93381.91;;;25.88;42.13
11011;BME280;5558;42.702;23.178;2023-04-30T15:17:52;93381.53;;;25.90;42.25
11011;BME280;5558;42.702;23.178;2023-04-30T15:20:19;93382.22;;;25.83;42.31
11011;BME280;5558;42.702;23.178;2023-04-30T15:22:46;93389.56;;;25.83;42.21
11011;BME280;5558;42.702;23.178;2023-04-30T15:25:14;93386.88;;;25.83;42.35
11011;BME280;5558;42.702;23.178;2023-04-30T15:27:42;93394.59;;;25.81;42.09
11011;BME280;5558;42.702;23.178;2023-04-30T15:30:09;93398.44;;;25.80;42.27
11011;BME280;5558;42.702;23.178;2023-04-30T15:32:35;93389.88;;;25.78;42.07
11011;BME280;5558;42.702;23.178;2023-04-30T15:35:03;93391.00;;;25.73;42.30
11011;BME280;5558;42.702;23.178;2023-04-30T15:37:31;93389.03;;;25.70;42.10
11011;BME280;5558;42.702;23.178;2023-04-30T15:39:58;93390.16;;;25.69;42.09
11011;BME280;5558;42.702;23.178;2023-04-30T15:42:27;93383.19;;;25.68;41.84
11011;BME280;5558;42.702;23.178;2023-04-30T15:44:53;93386.63;;;25.65;42.09
11011;BME280;5558;42.702;23.178;2023-04-30T15:47:20;93382.63;;;25.59;42.13
11011;BME280;5558;42.702;23.178;2023-04-30T15:49:47;93384.16;;;25.57;42.08
11011;BME280;5558;42.702;23.178;2023-04-30T15:52:13;93379.09;;;25.55;42.31
11011;BME280;5558;42.702;23.178;2023-04-30T15:54:40;93382.94;;;25.54;42.22
11011;BME280;5558;42.702;23.178;2023-04-30T15:57:07;93389.09;;;25.51;42.05
11011;BME280;5558;42.702;23.178;2023-04-30T15:59:35;93382.50;;;25.49;41.99
11011;BME280;5558;42.702;23.178;2023-04-30T16:02:01;93383.56;;;25.44;41.94
11011;BME280;5558;42.702;23.178;2023-04-30T16:04:28;93386.28;;;25.44;42.40
11011;BME280;5558;42.702;23.178;2023-04-30T16:06:55;93379.25;;;25.40;42.28
11011;BME280;5558;42.702;23.178;2023-04-30T16:09:22;93381.53;;;25.38;42.07
11011;BME280;5558;42.702;23.178;2023-04-30T16:11:49;93379.19;;;25.36;42.02
11011;BME280;5558;42.702;23.178;2023-04-30T16:14:16;93377.59;;;25.35;42.25
11011;BME280;5558;42.702;23.178;2023-04-30T16:16:44;93386.44;;;25.32;41.97
11011;BME280;5558;42.702;23.178;2023-04-30T16:19:10;93378.31;;;25.32;42.20
11011;BME280;5558;42.702;23.178;2023-04-30T16:21:38;93383.72;;;25.32;42.15
11011;BME280;5558;42.702;23.178;2023-04-30T16:24:06;93380.19;;;25.28;42.18
11011;BME280;5558;42.702;23.178;2023-04-30T16:26:33;93383.66;;;25.28;42.20
11011;BME280;5558;42.702;23.178;2023-04-30T16:29:00;93392.88;;;25.24;42.25
11011;BME280;5558;42.702;23.178;2023-04-30T16:31:27;93394.81;;;25.23;41.98
11011;BME280;5558;42.702;23.178;2023-04-30T16:33:55;93386.63;;;25.20;42.24
11011;BME280;5558;42.702;23.178;2023-04-30T16:36:22;93392.41;;;25.18;42.16
11011;BME280;5558;42.702;23.178;2023-04-30T16:38:49;93394.28;;;25.14;42.12
11011;BME280;5558;42.702;23.178;2023-04-30T16:41:16;93398.19;;;25.17;42.29
11011;BME280;5558;42.702;23.178;2023-04-30T16:43:42;93396.56;;;25.12;42.06
11011;BME280;5558;42.702;23.178;2023-04-30T16:46:10;93394.59;;;25.09;42.45
11011;BME280;5558;42.702;23.178;2023-04-30T16:48:37;93394.94;;;25.08;41.97
11011;BME280;5558;42.702;23.178;2023-04-30T16:51:05;93393.72;;;25.05;42.12
11011;BME280;5558;42.702;23.178;2023-04-30T16:53:33;93409.13;;;25.01;42.10
11011;BME280;5558;42.702;23.178;2023-04-30T16:56:00;93403.31;;;24.99;42.45
11011;BME280;5558;42.702;23.178;2023-04-30T16:58:27;93415.69;;;25.00;42.18
11011;BME280;5558;42.702;23.178;2023-04-30T17:00:53;93415.25;;;24.98;42.24
11011;BME280;5558;42.702;23.178;2023-04-30T17:03:21;93411.38;;;24.96;41.98
11011;BME280;5558;42.702;23.178;2023-04-30T17:05:47;93399.09;;;24.83;42.34
11011;BME280;5558;42.702;23.178;2023-04-30T17:08:16;93419.06;;;24.94;42.09
11011;BME280;5558;42.702;23.178;2023-04-30T17:10:44;93416.72;;;24.92;42.17
11011;BME280;5558;42.702;23.178;2023-04-30T17:13:11;93420.91;;;24.90;41.98
11011;BME280;5558;42.702;23.178;2023-04-30T17:15:38;93435.59;;;24.89;42.43
11011;BME280;5558;42.702;23.178;2023-04-30T17:18:05;93432.47;;;24.87;42.45
11011;BME280;5558;42.702;23.178;2023-04-30T17:20:32;93436.69;;;24.84;42.32
11011;BME280;5558;42.702;23.178;2023-04-30T17:22:59;93440.50;;;24.83;42.21
11011;BME280;5558;42.702;23.178;2023-04-30T17:25:27;93432.25;;;24.76;42.13
11011;BME280;5558;42.702;23.178;2023-04-30T17:27:56;93434.88;;;24.73;42.40
11011;BME280;5558;42.702;23.178;2023-04-30T17:30:25;93443.72;;;24.70;42.15
11011;BME280;5558;42.702;23.178;2023-04-30T17:32:52;93448.03;;;24.71;42.30
11011;BME280;5558;42.702;23.178;2023-04-30T17:35:19;93453.25;;;24.64;42.36
11011;BME280;5558;42.702;23.178;2023-04-30T17:37:46;93458.16;;;24.58;42.38
11011;BME280;5558;42.702;23.178;2023-04-30T17:40:13;93469.00;;;24.58;42.14
11011;BME280;5558;42.702;23.178;2023-04-30T17:42:41;93464.72;;;24.57;42.24
11011;BME280;5558;42.702;23.178;2023-04-30T17:45:09;93462.78;;;24.58;42.26
11011;BME280;5558;42.702;23.178;2023-04-30T17:47:36;93470.16;;;24.57;42.24
11011;BME280;5558;42.702;23.178;2023-04-30T17:50:05;93472.06;;;24.57;42.29
11011;BME280;5558;42.702;23.178;2023-04-30T17:52:32;93474.75;;;24.57;42.30
11011;BME280;5558;42.702;23.178;2023-04-30T17:55:03;93478.97;;;24.54;42.39
11011;BME280;5558;42.702;23.178;2023-04-30T17:57:30;93484.72;;;24.53;42.33
11011;BME280;5558;42.702;23.178;2023-04-30T17:59:58;93486.22;;;24.50;42.26
11011;BME280;5558;42.702;23.178;2023-04-30T18:02:25;93485.44;;;24.50;42.32
11011;BME280;5558;42.702;23.178;2023-04-30T18:04:52;93488.06;;;24.46;42.38
11011;BME280;5558;42.702;23.178;2023-04-30T18:07:18;93488.88;;;24.47;42.36
11011;BME280;5558;42.702;23.178;2023-04-30T18:09:45;93481.75;;;24.39;42.26
11011;BME280;5558;42.702;23.178;2023-04-30T18:12:12;93491.84;;;24.42;42.49
11011;BME280;5558;42.702;23.178;2023-04-30T18:14:38;93475.72;;;24.30;42.44
11011;BME280;5558;42.702;23.178;2023-04-30T18:17:07;93494.91;;;24.40;42.48
11011;BME280;5558;42.702;23.178;2023-04-30T18:19:33;93496.03;;;24.39;42.47
11011;BME280;5558;42.702;23.178;2023-04-30T18:22:02;93508.78;;;24.39;42.47
11011;BME280;5558;42.702;23.178;2023-04-30T18:24:29;93513.78;;;24.37;42.72
11011;BME280;5558;42.702;23.178;2023-04-30T18:26:56;93520.31;;;24.36;42.40
11011;BME280;5558;42.702;23.178;2023-04-30T18:29:23;93523.38;;;24.34;42.30
11011;BME280;5558;42.702;23.178;2023-04-30T18:31:50;93525.63;;;24.32;42.45
11011;BME280;5558;42.702;23.178;2023-04-30T18:34:18;93530.28;;;24.32;42.66
11011;BME280;5558;42.702;23.178;2023-04-30T18:36:44;93534.09;;;24.31;42.28
11011;BME280;5558;42.702;23.178;2023-04-30T18:39:11;93537.53;;;24.28;42.41
11011;BME280;5558;42.702;23.178;2023-04-30T18:41:38;93533.88;;;24.20;42.50
11011;BME280;5558;42.702;23.178;2023-04-30T18:44:05;93547.56;;;24.27;42.40
11011;BME280;5558;42.702;23.178;2023-04-30T18:46:32;93551.75;;;24.25;42.49
11011;BME280;5558;42.702;23.178;2023-04-30T18:48:58;93552.13;;;24.23;42.56
11011;BME280;5558;42.702;23.178;2023-04-30T18:51:28;93554.38;;;24.21;42.50
11011;BME280;5558;42.702;23.178;2023-04-30T18:53:55;93550.13;;;24.20;42.50
11011;BME280;5558;42.702;23.178;2023-04-30T18:56:22;93542.28;;;24.15;42.42
11011;BME280;5558;42.702;23.178;2023-04-30T18:58:48;93537.47;;;24.08;42.68
11011;BME280;5558;42.702;23.178;2023-04-30T19:01:15;93555.44;;;24.17;42.51
11011;BME280;5558;42.702;23.178;2023-04-30T19:03:45;93555.44;;;24.17;42.44
11011;BME280;5558;42.702;23.178;2023-04-30T19:06:12;93555.34;;;24.13;42.75
11011;BME280;5558;42.702;23.178;2023-04-30T19:08:40;93559.97;;;24.13;42.59
11011;BME280;5558;42.702;23.178;2023-04-30T19:11:07;93560.06;;;24.16;42.97
11011;BME280;5558;42.702;23.178;2023-04-30T19:13:33;93552.66;;;24.48;42.39
11011;BME280;5558;42.702;23.178;2023-04-30T19:16:01;93548.91;;;24.52;42.64
11011;BME280;5558;42.702;23.178;2023-04-30T19:18:28;93563.28;;;24.56;42.22
11011;BME280;5558;42.702;23.178;2023-04-30T19:20:55;93566.78;;;24.57;42.61
11011;BME280;5558;42.702;23.178;2023-04-30T19:23:24;93570.28;;;24.57;42.56
11011;BME280;5558;42.702;23.178;2023-04-30T19:25:52;93564.53;;;24.59;43.14
11011;BME280;5558;42.702;23.178;2023-04-30T19:28:19;93569.59;;;24.60;43.05
11011;BME280;5558;42.702;23.178;2023-04-30T19:30:45;93573.09;;;24.61;42.97
11011;BME280;5558;42.702;23.178;2023-04-30T19:33:12;93571.94;;;24.62;43.08
11011;BME280;5558;42.702;23.178;2023-04-30T19:35:39;93574.28;;;24.63;43.51
11011;BME280;5558;42.702;23.178;2023-04-30T19:38:06;93573.13;;;24.64;43.46
11011;BME280;5558;42.702;23.178;2023-04-30T19:40:32;93582.84;;;24.65;43.53
11011;BME280;5558;42.702;23.178;2023-04-30T19:43:00;93582.47;;;24.67;43.66
11011;BME280;5558;42.702;23.178;2023-04-30T19:45:27;93570.63;;;24.56;43.66
11011;BME280;5558;42.702;23.178;2023-04-30T19:47:54;93591.50;;;24.71;43.60
11011;BME280;5558;42.702;23.178;2023-04-30T19:50:21;93588.38;;;24.69;45.07
11011;BME280;5558;42.702;23.178;2023-04-30T19:52:48;93590.34;;;24.72;44.57
11011;BME280;5558;42.702;23.178;2023-04-30T19:55:14;93590.09;;;24.77;44.30
11011;BME280;5558;42.702;23.178;2023-04-30T19:57:41;93587.28;;;24.73;43.95
11011;BME280;5558;42.702;23.178;2023-04-30T20:00:11;93587.09;;;24.82;44.49
11011;BME280;5558;42.702;23.178;2023-04-30T20:02:37;93597.56;;;24.83;44.06
11011;BME280;5558;42.702;23.178;2023-04-30T20:05:05;93583.50;;;24.78;44.39
11011;BME280;5558;42.702;23.178;2023-04-30T20:07:34;93591.03;;;24.84;44.07
11011;BME280;5558;42.702;23.178;2023-04-30T20:10:01;93594.44;;;24.81;44.02
11011;BME280;5558;42.702;23.178;2023-04-30T20:12:27;93591.03;;;24.84;43.66
11011;BME280;5558;42.702;23.178;2023-04-30T20:14:54;93595.66;;;24.84;44.13
11011;BME280;5558;42.702;23.178;2023-04-30T20:17:22;93597.56;;;24.83;43.98
11011;BME280;5558;42.702;23.178;2023-04-30T20:19:49;93591.78;;;24.85;44.15
11011;BME280;5558;42.702;23.178;2023-04-30T20:22:16;93594.59;;;24.88;43.49
11011;BME280;5558;42.702;23.178;2023-04-30T20:24:43;93601.91;;;24.88;43.33
11011;BME280;5558;42.702;23.178;2023-04-30T20:27:09;93594.94;;;24.87;43.36
11011;BME280;5558;42.702;23.178;2023-04-30T20:29:36;93595.28;;;24.85;43.09
11011;BME280;5558;42.702;23.178;2023-04-30T20:32:05;93588.59;;;24.79;43.25
11011;BME280;5558;42.702;23.178;2023-04-30T20:34:33;93599.06;;;24.81;43.13
11011;BME280;5558;42.702;23.178;2023-04-30T20:37:00;93605.97;;;24.78;43.08
11011;BME280;5558;42.702;23.178;2023-04-30T20:39:28;93608.59;;;24.75;43.11
11011;BME280;5558;42.702;23.178;2023-04-30T20:41:55;93614.72;;;24.72;43.31
11011;BME280;5558;42.702;23.178;2023-04-30T20:44:23;93618.91;;;24.69;43.41
11011;BME280;5558;42.702;23.178;2023-04-30T20:46:51;93611.81;;;24.65;43.43
11011;BME280;5558;42.702;23.178;2023-04-30T20:49:17;93621.81;;;24.61;43.21
11011;BME280;5558;42.702;23.178;2023-04-30T20:51:45;93623.28;;;24.58;43.08
11011;BME280;5558;42.702;23.178;2023-04-30T20:54:12;93620.50;;;24.55;43.16
11011;BME280;5558;42.702;23.178;2023-04-30T20:56:39;93620.84;;;24.53;43.14
11011;BME280;5558;42.702;23.178;2023-04-30T20:59:07;93618.50;;;24.52;43.33
11011;BME280;5558;42.702;23.178;2023-04-30T21:01:34;93621.13;;;24.48;43.24
11011;BME280;5558;42.702;23.178;2023-04-30T21:04:01;93617.97;;;24.46;43.45
11011;BME280;5558;42.702;23.178;2023-04-30T21:06:28;93628.72;;;24.43;43.39
11011;BME280;5558;42.702;23.178;2023-04-30T21:08:57;93630.66;;;24.42;43.54
11011;BME280;5558;42.702;23.178;2023-04-30T21:11:25;93631.31;;;24.39;43.48
11011;BME280;5558;42.702;23.178;2023-04-30T21:13:52;93649.16;;;24.40;43.57
11011;BME280;5558;42.702;23.178;2023-04-30T21:16:19;93647.91;;;24.38;43.48
11011;BME280;5558;42.702;23.178;2023-04-30T21:18:46;93645.56;;;24.36;43.50
11011;BME280;5558;42.702;23.178;2023-04-30T21:21:13;93650.53;;;24.34;43.29
11011;BME280;5558;42.702;23.178;2023-04-30T21:23:41;93646.28;;;24.33;43.22
11011;BME280;5558;42.702;23.178;2023-04-30T21:26:10;93660.50;;;24.30;43.49
11011;BME280;5558;42.702;23.178;2023-04-30T21:28:37;93653.41;;;24.26;43.52
11011;BME280;5558;42.702;23.178;2023-04-30T21:31:04;93655.69;;;24.24;43.28
11011;BME280;5558;42.702;23.178;2023-04-30T21:33:31;93655.69;;;24.24;43.52
11011;BME280;5558;42.702;23.178;2023-04-30T21:35:58;93659.44;;;24.19;43.74
11011;BME280;5558;42.702;23.178;2023-04-30T21:38:25;93660.69;;;24.22;43.58
11011;BME280;5558;42.702;23.178;2023-04-30T21:40:51;93665.66;;;24.20;43.50
11011;BME280;5558;42.702;23.178;2023-04-30T21:43:19;93661.69;;;24.17;43.38
11011;BME280;5558;42.702;23.178;2023-04-30T21:45:46;93655.94;;;24.19;43.77
11011;BME280;5558;42.702;23.178;2023-04-30T21:48:13;93634.22;;;23.99;43.62
11011;BME280;5558;42.702;23.178;2023-04-30T21:50:40;93653.94;;;24.16;43.36
11011;BME280;5558;42.702;23.178;2023-04-30T21:53:06;93651.22;;;24.16;43.37
11011;BME280;5558;42.702;23.178;2023-04-30T21:55:33;93660.50;;;24.15;43.61
11011;BME280;5558;42.702;23.178;2023-04-30T21:58:00;93658.13;;;24.13;43.62
11011;BME280;5558;42.702;23.178;2023-04-30T22:00:28;93653.09;;;24.12;43.52
11011;BME280;5558;42.702;23.178;2023-04-30T22:02:55;93655.00;;;24.11;43.73
11011;BME280;5558;42.702;23.178;2023-04-30T22:05:21;93653.84;;;24.12;43.44
11011;BME280;5558;42.702;23.178;2023-04-30T22:07:48;93653.44;;;24.10;43.61
11011;BME280;5558;42.702;23.178;2023-04-30T22:10:15;93629.72;;;23.91;43.57
11011;BME280;5558;42.702;23.178;2023-04-30T22:12:41;93655.00;;;24.11;43.41
11011;BME280;5558;42.702;23.178;2023-04-30T22:15:09;93664.66;;;24.12;43.43
11011;BME280;5558;42.702;23.178;2023-04-30T22:17:37;93662.31;;;24.10;43.43
11011;BME280;5558;42.702;23.178;2023-04-30T22:20:05;93666.97;;;24.10;43.52
11011;BME280;5558;42.702;23.178;2023-04-30T22:22:32;93661.56;;;24.10;43.25
11011;BME280;5558;42.702;23.178;2023-04-30T22:25:00;93664.25;;;24.10;43.32
11011;BME280;5558;42.702;23.178;2023-04-30T22:27:27;93658.06;;;24.09;43.63
11011;BME280;5558;42.702;23.178;2023-04-30T22:29:54;93661.56;;;24.10;43.34
11011;BME280;5558;42.702;23.178;2023-04-30T22:32:20;93652.19;;;24.07;43.57
11011;BME280;5558;42.702;23.178;2023-04-30T22:34:48;93661.88;;;24.08;43.54
11011;BME280;5558;42.702;23.178;2023-04-30T22:37:15;93658.41;;;24.08;43.40
11011;BME280;5558;42.702;23.178;2023-04-30T22:39:42;93659.97;;;24.09;43.46
11011;BME280;5558;42.702;23.178;2023-04-30T22:42:09;93657.25;;;24.09;43.45
11011;BME280;5558;42.702;23.178;2023-04-30T22:44:36;93658.06;;;24.09;43.23
11011;BME280;5558;42.702;23.178;2023-04-30T22:47:03;93653.00;;;24.08;43.22
11011;BME280;5558;42.702;23.178;2023-04-30T22:49:30;93653.00;;;24.08;43.47
11011;BME280;5558;42.702;23.178;2023-04-30T22:51:59;93652.63;;;24.09;43.24
11011;BME280;5558;42.702;23.178;2023-04-30T22:54:25;93653.00;;;24.08;43.42
11011;BME280;5558;42.702;23.178;2023-04-30T22:56:52;93651.84;;;24.09;43.43
11011;BME280;5558;42.702;23.178;2023-04-30T22:59:19;93655.34;;;24.09;43.08
11011;BME280;5558;42.702;23.178;2023-04-30T23:01:46;93649.13;;;24.09;43.41
11011;BME280;5558;42.702;23.178;2023-04-30T23:04:13;93649.94;;;24.09;43.35
11011;BME280;5558;42.702;23.178;2023-04-30T23:06:40;93648.03;;;24.10;43.05
11011;BME280;5558;42.702;23.178;2023-04-30T23:09:08;93651.50;;;24.10;43.33
11011;BME280;5558;42.702;23.178;2023-04-30T23:11:37;93648.34;;;24.08;43.21
11011;BME280;5558;42.702;23.178;2023-04-30T23:14:03;93652.63;;;24.09;43.35
11011;BME280;5558;42.702;23.178;2023-04-30T23:16:30;93641.63;;;24.02;43.24
11011;BME280;5558;42.702;23.178;2023-04-30T23:18:57;93653.44;;;24.10;43.08
11011;BME280;5558;42.702;23.178;2023-04-30T23:21:23;93649.13;;;24.09;43.10
11011;BME280;5558;42.702;23.178;2023-04-30T23:23:51;93656.13;;;24.10;43.28
11011;BME280;5558;42.702;23.178;2023-04-30T23:26:19;93645.31;;;24.10;43.03
11011;BME280;5558;42.702;23.178;2023-04-30T23:28:47;93648.03;;;24.10;43.04
11011;BME280;5558;42.702;23.178;2023-04-30T23:31:13;93654.56;;;24.09;43.23
11011;BME280;5558;42.702;23.178;2023-04-30T23:33:42;93649.94;;;24.09;43.22
11011;BME280;5558;42.702;23.178;2023-04-30T23:36:09;93639.81;;;24.06;43.12
11011;BME280;5558;42.702;23.178;2023-04-30T23:38:35;93650.38;;;24.12;42.89
11011;BME280;5558;42.702;23.178;2023-04-30T23:41:02;93648.78;;;24.10;43.25
11011;BME280;5558;42.702;23.178;2023-04-30T23:43:30;93654.63;;;24.13;42.94
11011;BME280;5558;42.702;23.178;2023-04-30T23:45:57;93649.22;;;24.13;42.96
11011;BME280;5558;42.702;23.178;2023-04-30T23:48:24;93656.56;;;24.12;43.13
11011;BME280;5558;42.702;23.178;2023-04-30T23:50:57;93649.84;;;24.06;43.01
11011;BME280;5558;42.702;23.178;2023-04-30T23:53:24;93656.91;;;24.10;43.19
11011;BME280;5558;42.702;23.178;2023-04-30T23:55:51;93654.19;;;24.10;42.93
11011;BME280;5558;42.702;23.178;2023-04-30T23:58:18;93653.84;;;24.12;43.00
